< < Back
Terminal Aerodrome Forecast


Current Version              Previous Versions:   1  2  3  4  5  6  7  8  9  

Terminal Aerodrome Forecast

679
FTUS42 KFFC 162100 AAB
TAFATL
TAF AMD
KATL 162159Z 1622/1724 10009KT P6SM SKC
     FM171200 08012KT P6SM SCT250
     FM171600 10014G25KT P6SM BKN040 BKN250=



Latest METAR

027
SAUS70 KWBC 170100 RRF
MTRATL
METAR KATL 170052Z 10007KT 10SM FEW250 12/M02 A3025 RMK AO2 SLP245
T01221017


USA.gov is the U.S. government's official web portal to all federal, state and local government web resources and services.